createdAt,value
2016-05-21T00:00:11.951Z,0
2016-05-21T00:01:11.797Z,0
2016-05-21T00:02:12.128Z,0
2016-05-21T00:03:12.131Z,0
2016-05-21T00:04:12.133Z,0
2016-05-21T00:05:12.136Z,0
2016-05-21T00:06:11.997Z,0
2016-05-21T00:07:11.986Z,0
2016-05-21T00:08:11.832Z,0
2016-05-21T00:09:12.147Z,0
2016-05-21T00:10:12.008Z,0
2016-05-21T00:11:12.492Z,0
2016-05-21T00:12:12.042Z,0
2016-05-21T00:13:12.060Z,0
2016-05-21T00:14:12.078Z,0
2016-05-21T00:15:12.254Z,0
2016-05-21T00:16:12.265Z,0
2016-05-21T00:17:12.116Z,0
2016-05-21T00:18:12.125Z,0
2016-05-21T00:19:12.149Z,0
2016-05-21T00:20:12.157Z,0
2016-05-21T00:21:12.335Z,0
2016-05-21T00:22:12.169Z,0
2016-05-21T00:23:12.032Z,0
2016-05-21T00:24:12.195Z,0
2016-05-21T00:25:12.355Z,0
2016-05-21T00:26:12.828Z,0
2016-05-21T00:27:12.379Z,0
2016-05-21T00:28:12.225Z,0
2016-05-21T00:29:12.400Z,0
2016-05-21T00:30:12.247Z,0
2016-05-21T00:31:12.251Z,0
2016-05-21T00:32:12.395Z,0
2016-05-21T00:33:12.397Z,0
2016-05-21T00:34:12.400Z,0
2016-05-21T00:35:12.418Z,0
2016-05-21T00:36:12.420Z,0
2016-05-21T00:37:12.423Z,0
2016-05-21T00:38:12.442Z,0
2016-05-21T00:39:12.459Z,0
2016-05-21T00:40:12.447Z,0
2016-05-21T00:41:13.419Z,0
2016-05-21T00:42:12.452Z,0
2016-05-21T00:43:12.455Z,0
2016-05-21T00:44:12.472Z,0
2016-05-21T00:45:12.476Z,0
2016-05-21T00:46:12.479Z,0
2016-05-21T00:47:12.325Z,0
2016-05-21T00:48:12.484Z,0
2016-05-21T00:49:12.346Z,0
2016-05-21T00:50:12.505Z,0
2016-05-21T00:51:12.508Z,0
2016-05-21T00:52:12.526Z,0
2016-05-21T00:53:12.372Z,0
2016-05-21T00:54:12.531Z,0
2016-05-21T00:55:12.534Z,0
2016-05-21T00:56:12.693Z,0
2016-05-21T00:57:12.226Z,0
2016-05-21T00:58:12.557Z,0
2016-05-21T00:59:12.404Z,0
2016-05-21T01:00:12.563Z,0
2016-05-21T01:01:12.582Z,0
2016-05-21T01:02:13.021Z,0
2016-05-21T01:03:12.587Z,0
2016-05-21T01:04:12.606Z,0
2016-05-21T01:05:12.592Z,0
2016-05-21T01:06:12.595Z,0
2016-05-21T01:07:12.598Z,0
2016-05-21T01:08:12.459Z,0
2016-05-21T01:09:12.603Z,0
2016-05-21T01:10:12.621Z,0
2016-05-21T01:11:13.311Z,0
2016-05-21T01:12:12.627Z,0
2016-05-21T01:13:12.488Z,0
2016-05-21T01:14:12.648Z,0
2016-05-21T01:15:12.494Z,0
2016-05-21T01:16:12.497Z,0
2016-05-21T01:17:12.656Z,0
2016-05-21T01:18:12.518Z,0
2016-05-21T01:19:12.521Z,0
2016-05-21T01:20:12.524Z,0
2016-05-21T01:21:12.526Z,0
2016-05-21T01:22:12.700Z,0
2016-05-21T01:23:12.688Z,0
2016-05-21T01:24:12.737Z,0
2016-05-21T01:25:12.693Z,0
2016-05-21T01:26:12.570Z,0
2016-05-21T01:27:12.729Z,0
2016-05-21T01:28:12.576Z,0
2016-05-21T01:29:12.735Z,0
2016-05-21T01:30:12.426Z,0
2016-05-21T01:31:12.599Z,0
2016-05-21T01:32:12.618Z,0
2016-05-21T01:33:12.762Z,0
2016-05-21T01:34:12.779Z,0
2016-05-21T01:35:12.767Z,0
2016-05-21T01:36:12.785Z,0
2016-05-21T01:37:12.772Z,0
2016-05-21T01:38:12.790Z,0
2016-05-21T01:39:12.809Z,0
2016-05-21T01:40:12.795Z,0
2016-05-21T01:41:13.111Z,0
2016-05-21T01:42:12.833Z,0
2016-05-21T01:43:12.836Z,0
2016-05-21T01:44:12.682Z,0
2016-05-21T01:45:12.825Z,0
2016-05-21T01:46:12.672Z,0
2016-05-21T01:47:12.830Z,0
2016-05-21T01:48:12.849Z,0
2016-05-21T01:49:12.758Z,0
2016-05-21T01:50:12.697Z,0
2016-05-21T01:51:12.872Z,0
2016-05-21T01:52:12.874Z,0
2016-05-21T01:53:12.877Z,0
2016-05-21T01:54:12.880Z,0
2016-05-21T01:55:12.899Z,0
2016-05-21T01:56:13.308Z,0
2016-05-21T01:57:12.591Z,0
2016-05-21T01:58:12.907Z,0
2016-05-21T01:59:12.754Z,0
2016-05-21T02:00:12.912Z,0
2016-05-21T02:01:12.915Z,0
2016-05-21T02:02:12.932Z,0
2016-05-21T02:03:12.639Z,0
2016-05-21T02:04:12.938Z,0
2016-05-21T02:05:12.800Z,0
2016-05-21T02:06:12.787Z,0
2016-05-21T02:07:12.978Z,0
2016-05-21T02:08:12.980Z,0
2016-05-21T02:09:12.826Z,0
2016-05-21T02:10:12.814Z,0
2016-05-21T02:11:12.832Z,0
2016-05-21T02:12:12.835Z,0
2016-05-21T02:13:12.837Z,0
2016-05-21T02:14:12.840Z,0
2016-05-21T02:15:13.000Z,0
2016-05-21T02:16:13.002Z,0
2016-05-21T02:17:13.052Z,0
2016-05-21T02:18:12.866Z,0
2016-05-21T02:19:13.041Z,0
2016-05-21T02:20:13.044Z,0
2016-05-21T02:21:13.063Z,0
2016-05-21T02:22:12.893Z,0
2016-05-21T02:23:12.896Z,0
2016-05-21T02:24:12.899Z,0
2016-05-21T02:25:13.058Z,0
2016-05-21T02:26:12.935Z,0
2016-05-21T02:27:13.078Z,0
2016-05-21T02:28:13.082Z,0
2016-05-21T02:29:13.084Z,0
2016-05-21T02:30:13.087Z,0
2016-05-21T02:31:13.105Z,0
2016-05-21T02:32:12.951Z,0
2016-05-21T02:33:12.954Z,0
2016-05-21T02:34:13.112Z,0
2016-05-21T02:35:13.132Z,0
2016-05-21T02:36:13.133Z,0
2016-05-21T02:37:13.137Z,0
2016-05-21T02:38:12.984Z,0
2016-05-21T02:39:13.142Z,0
2016-05-21T02:40:13.004Z,0
2016-05-21T02:41:13.694Z,0
2016-05-21T02:42:12.853Z,0
2016-05-21T02:43:13.153Z,0
2016-05-21T02:44:13.014Z,0
2016-05-21T02:45:13.189Z,0
2016-05-21T02:46:13.175Z,0
2016-05-21T02:47:13.194Z,0
2016-05-21T02:48:13.041Z,0
2016-05-21T02:49:13.200Z,0
2016-05-21T02:50:13.203Z,0
2016-05-21T02:51:13.299Z,0
2016-05-21T02:52:13.255Z,0
2016-05-21T02:53:13.242Z,0
2016-05-21T02:54:13.244Z,0
2016-05-21T02:55:13.919Z,0
2016-05-21T02:56:13.157Z,0
2016-05-21T02:57:13.080Z,0
2016-05-21T02:58:13.255Z,0
2016-05-21T02:59:13.258Z,0
2016-05-21T03:00:13.105Z,0
2016-05-21T03:01:13.123Z,0
2016-05-21T03:02:13.359Z,0
2016-05-21T03:03:13.144Z,0
2016-05-21T03:04:13.303Z,0
2016-05-21T03:05:12.990Z,0
2016-05-21T03:06:13.151Z,0
2016-05-21T03:07:13.311Z,0
2016-05-21T03:08:13.314Z,0
2016-05-21T03:09:13.301Z,0
2016-05-21T03:10:13.319Z,0
2016-05-21T03:11:13.212Z,0
2016-05-21T03:12:13.325Z,0
2016-05-21T03:13:13.342Z,0
2016-05-21T03:14:13.345Z,0
2016-05-21T03:15:13.364Z,0
2016-05-21T03:16:13.366Z,0
2016-05-21T03:17:13.210Z,0
2016-05-21T03:18:13.213Z,0
2016-05-21T03:19:13.372Z,0
2016-05-21T03:20:13.374Z,0
2016-05-21T03:21:13.222Z,0
2016-05-21T03:22:13.239Z,0
2016-05-21T03:23:13.258Z,0
2016-05-21T03:24:13.417Z,0
2016-05-21T03:25:13.247Z,0
2016-05-21T03:26:13.125Z,0
2016-05-21T03:27:13.424Z,0
2016-05-21T03:28:13.428Z,0
2016-05-21T03:29:13.461Z,0
2016-05-21T03:30:13.432Z,0
2016-05-21T03:31:13.451Z,0
2016-05-21T03:32:13.454Z,0
2016-05-21T03:33:13.456Z,0
2016-05-21T03:34:13.302Z,0
2016-05-21T03:35:13.462Z,0
2016-05-21T03:36:13.308Z,0
2016-05-21T03:37:13.467Z,0
2016-05-21T03:38:13.188Z,0
2016-05-21T03:39:13.176Z,0
2016-05-21T03:40:13.350Z,0
2016-05-21T03:41:13.509Z,0
2016-05-21T03:42:13.496Z,0
2016-05-21T03:43:13.514Z,0
2016-05-21T03:44:13.376Z,0
2016-05-21T03:45:13.536Z,0
2016-05-21T03:46:13.538Z,0
2016-05-21T03:47:13.541Z,0
2016-05-21T03:48:13.559Z,0
2016-05-21T03:49:13.547Z,0
2016-05-21T03:50:13.564Z,0
2016-05-21T03:51:13.270Z,5
2016-05-21T03:52:13.570Z,5
2016-05-21T03:53:13.260Z,5
2016-05-21T03:54:13.591Z,5
2016-05-21T03:55:13.578Z,5
2016-05-21T03:56:14.424Z,5
2016-05-21T03:57:13.599Z,5
2016-05-21T03:58:13.586Z,5
2016-05-21T03:59:13.620Z,5
2016-05-21T04:00:13.607Z,5
2016-05-21T04:01:13.469Z,5
2016-05-21T04:02:13.315Z,5
2016-05-21T04:03:13.646Z,5
2016-05-21T04:04:13.633Z,5
2016-05-21T04:05:13.636Z,5
2016-05-21T04:06:13.654Z,5
2016-05-21T04:07:13.485Z,5
2016-05-21T04:08:13.348Z,5
2016-05-21T04:09:13.678Z,5
2016-05-21T04:10:13.509Z,5
2016-05-21T04:11:13.887Z,5
2016-05-21T04:12:13.670Z,5
2016-05-21T04:13:13.673Z,5
2016-05-21T04:14:13.551Z,5
2016-05-21T04:15:13.695Z,5
2016-05-21T04:16:13.698Z,5
2016-05-21T04:17:13.559Z,10
2016-05-21T04:18:13.578Z,10
2016-05-21T04:19:13.564Z,10
2016-05-21T04:20:13.426Z,10
2016-05-21T04:21:13.758Z,10
2016-05-21T04:22:13.589Z,10
2016-05-21T04:23:13.747Z,10
2016-05-21T04:24:13.734Z,10
2016-05-21T04:25:13.752Z,10
2016-05-21T04:26:13.365Z,10
2016-05-21T04:27:13.773Z,10
2016-05-21T04:28:13.619Z,10
2016-05-21T04:29:13.622Z,10
2016-05-21T04:30:13.625Z,10
2016-05-21T04:31:13.785Z,10
2016-05-21T04:32:13.474Z,10
2016-05-21T04:33:13.790Z,10
2016-05-21T04:34:13.807Z,15
2016-05-21T04:35:13.810Z,15
2016-05-21T04:36:13.813Z,20
2016-05-21T04:37:13.518Z,20
2016-05-21T04:38:13.835Z,25
2016-05-21T04:39:13.837Z,30
2016-05-21T04:40:13.684Z,35
2016-05-21T04:41:13.921Z,40
2016-05-21T04:42:13.532Z,45
2016-05-21T04:43:13.879Z,45
2016-05-21T04:44:13.865Z,50
2016-05-21T04:45:13.868Z,55
2016-05-21T04:46:13.871Z,55
2016-05-21T04:47:13.578Z,55
2016-05-21T04:48:13.939Z,55
2016-05-21T04:49:13.895Z,65
2016-05-21T04:50:13.586Z,110
2016-05-21T04:51:13.932Z,100
2016-05-21T04:52:13.903Z,145
2016-05-21T04:53:13.922Z,165
2016-05-21T04:54:13.971Z,205
2016-05-21T04:55:13.927Z,160
2016-05-21T04:56:13.977Z,155
2016-05-21T04:57:13.933Z,100
2016-05-21T04:58:13.638Z,45
2016-05-21T04:59:13.952Z,35
2016-05-21T05:00:13.800Z,35
2016-05-21T05:01:13.646Z,35
2016-05-21T05:02:13.821Z,30
2016-05-21T05:03:13.823Z,30
2016-05-21T05:04:13.669Z,30
2016-05-21T05:05:13.985Z,30
2016-05-21T05:06:13.847Z,35
2016-05-21T05:07:13.849Z,35
2016-05-21T05:08:13.993Z,40
2016-05-21T05:09:13.995Z,45
2016-05-21T05:10:13.874Z,50
2016-05-21T05:11:13.985Z,155
2016-05-21T05:12:14.020Z,60
2016-05-21T05:13:14.038Z,55
2016-05-21T05:14:14.040Z,60
2016-05-21T05:15:13.887Z,65
2016-05-21T05:16:14.077Z,70
2016-05-21T05:17:14.065Z,90
2016-05-21T05:18:14.067Z,90
2016-05-21T05:19:13.914Z,110
2016-05-21T05:20:14.087Z,100
2016-05-21T05:21:13.934Z,110
2016-05-21T05:22:14.093Z,110
2016-05-21T05:23:14.095Z,95
2016-05-21T05:24:14.145Z,110
2016-05-21T05:25:14.523Z,235
2016-05-21T05:26:14.432Z,250
2016-05-21T05:27:13.966Z,165
2016-05-21T05:28:14.109Z,440
2016-05-21T05:29:13.971Z,180
2016-05-21T05:30:14.131Z,485
2016-05-21T05:31:14.149Z,190
2016-05-21T05:32:13.838Z,155
2016-05-21T05:33:14.169Z,590
2016-05-21T05:34:14.016Z,570
2016-05-21T05:35:14.191Z,545
2016-05-21T05:36:14.037Z,600
2016-05-21T05:37:14.197Z,640
2016-05-21T05:38:14.198Z,620
2016-05-21T05:39:13.888Z,615
2016-05-21T05:40:14.048Z,710
2016-05-21T05:41:14.285Z,695
2016-05-21T05:42:14.225Z,675
2016-05-21T05:43:14.087Z,655
2016-05-21T05:44:14.246Z,720
2016-05-21T05:45:14.249Z,730
2016-05-21T05:46:14.095Z,585
2016-05-21T05:47:14.114Z,485
2016-05-21T05:48:14.272Z,635
2016-05-21T05:49:14.119Z,640
2016-05-21T05:50:14.137Z,660
2016-05-21T05:51:14.296Z,685
2016-05-21T05:52:14.314Z,585
2016-05-21T05:53:14.161Z,610
2016-05-21T05:54:14.008Z,595
2016-05-21T05:55:14.181Z,590
2016-05-21T05:56:14.356Z,595
2016-05-21T05:57:14.344Z,455
2016-05-21T05:58:14.347Z,385
2016-05-21T05:59:14.208Z,380
2016-05-21T06:00:14.367Z,495
2016-05-21T06:01:14.369Z,480
2016-05-21T06:02:14.232Z,325
2016-05-21T06:03:14.391Z,280
2016-05-21T06:04:14.238Z,485
2016-05-21T06:05:14.413Z,225
2016-05-21T06:06:14.430Z,185
2016-05-21T06:07:14.418Z,125
2016-05-21T06:08:14.123Z,120
2016-05-21T06:09:14.454Z,140
2016-05-21T06:10:14.441Z,200
2016-05-21T06:11:14.600Z,200
2016-05-21T06:12:14.462Z,405
2016-05-21T06:13:14.480Z,825
2016-05-21T06:14:14.483Z,690
2016-05-21T06:15:14.173Z,530
2016-05-21T06:16:14.348Z,255
2016-05-21T06:17:14.351Z,240
2016-05-21T06:18:14.509Z,185
2016-05-21T06:19:14.512Z,180
2016-05-21T06:20:14.359Z,305
2016-05-21T06:21:14.533Z,370
2016-05-21T06:22:14.536Z,270
2016-05-21T06:23:14.554Z,390
2016-05-21T06:24:14.557Z,445
2016-05-21T06:25:14.403Z,485
2016-05-21T06:26:14.562Z,295
2016-05-21T06:27:14.565Z,350
2016-05-21T06:28:14.599Z,290
2016-05-21T06:29:14.586Z,385
2016-05-21T06:30:14.620Z,410
2016-05-21T06:31:14.466Z,465
2016-05-21T06:32:14.610Z,675
2016-05-21T06:33:14.627Z,735
2016-05-21T06:34:14.474Z,710
2016-05-21T06:35:14.336Z,585
2016-05-21T06:36:14.636Z,530
2016-05-21T06:37:14.499Z,310
2016-05-21T06:38:14.501Z,250
2016-05-21T06:39:14.675Z,185
2016-05-21T06:40:14.678Z,155
2016-05-21T06:41:14.853Z,130
2016-05-21T06:42:14.698Z,105
2016-05-21T06:43:14.718Z,85
2016-05-21T06:44:14.704Z,85
2016-05-21T06:45:14.551Z,100
2016-05-21T06:46:14.428Z,90
2016-05-21T06:47:14.728Z,85
2016-05-21T06:48:14.731Z,75
2016-05-21T06:49:14.734Z,80
2016-05-21T06:50:14.596Z,80
2016-05-21T06:51:14.754Z,80
2016-05-21T06:52:14.757Z,85
2016-05-21T06:53:14.759Z,195
2016-05-21T06:54:14.778Z,75
2016-05-21T06:55:14.765Z,60
2016-05-21T06:56:15.190Z,55
2016-05-21T06:57:14.677Z,55
2016-05-21T06:58:14.805Z,55
2016-05-21T06:59:14.651Z,45
2016-05-21T07:00:14.653Z,40
2016-05-21T07:01:14.688Z,40
2016-05-21T07:02:14.987Z,35
2016-05-21T07:03:14.677Z,40
2016-05-21T07:04:14.852Z,40
2016-05-21T07:05:14.855Z,40
2016-05-21T07:06:14.858Z,45
2016-05-21T07:07:14.860Z,55
2016-05-21T07:08:14.550Z,55
2016-05-21T07:09:14.881Z,50
2016-05-21T07:10:14.883Z,50
2016-05-21T07:11:15.448Z,50
2016-05-21T07:12:14.889Z,55
2016-05-21T07:13:14.595Z,55
2016-05-21T07:14:14.910Z,55
2016-05-21T07:15:14.913Z,65
2016-05-21T07:16:14.915Z,85
2016-05-21T07:17:14.934Z,90
2016-05-21T07:18:14.952Z,75
2016-05-21T07:19:14.783Z,75
2016-05-21T07:20:14.957Z,90
2016-05-21T07:21:14.960Z,245
2016-05-21T07:22:14.979Z,120
2016-05-21T07:23:14.825Z,135
2016-05-21T07:24:14.968Z,130
2016-05-21T07:25:14.845Z,140
2016-05-21T07:26:15.021Z,225
2016-05-21T07:27:15.117Z,270
2016-05-21T07:28:15.010Z,295
2016-05-21T07:29:15.014Z,135
2016-05-21T07:30:15.000Z,95
2016-05-21T07:31:14.862Z,75
2016-05-21T07:32:15.037Z,65
2016-05-21T07:33:14.867Z,60
2016-05-21T07:34:14.886Z,160
2016-05-21T07:35:15.044Z,95
2016-05-21T07:36:14.907Z,115
2016-05-21T07:37:15.050Z,165
2016-05-21T07:38:14.912Z,175
2016-05-21T07:39:14.774Z,180
2016-05-21T07:40:15.074Z,170
2016-05-21T07:41:14.983Z,165
2016-05-21T07:42:15.204Z,165
2016-05-21T07:43:14.941Z,165
2016-05-21T07:44:14.944Z,160
2016-05-21T07:45:14.962Z,160
2016-05-21T07:46:15.121Z,155
2016-05-21T07:47:15.124Z,155
2016-05-21T07:48:14.986Z,155
2016-05-21T07:49:15.129Z,155
2016-05-21T07:50:15.038Z,150
2016-05-21T07:51:14.994Z,150
2016-05-21T07:52:15.012Z,150
2016-05-21T07:53:15.155Z,155
2016-05-21T07:54:15.174Z,155
2016-05-21T07:55:15.176Z,160
2016-05-21T07:56:15.804Z,165
2016-05-21T07:57:15.198Z,160
2016-05-21T07:58:15.200Z,155
2016-05-21T07:59:15.062Z,155
2016-05-21T08:00:15.206Z,150
2016-05-21T08:01:15.225Z,145
2016-05-21T08:02:35.417Z,150
2016-05-21T08:03:15.073Z,150
2016-05-21T08:04:14.935Z,145
2016-05-21T08:05:15.250Z,145
2016-05-21T08:06:15.253Z,145
2016-05-21T08:07:15.272Z,140
2016-05-21T08:08:15.118Z,140
2016-05-21T08:09:15.261Z,140
2016-05-21T08:10:15.280Z,140
2016-05-21T08:11:15.360Z,140
2016-05-21T08:12:15.332Z,145
2016-05-21T08:13:15.147Z,150
2016-05-21T08:14:15.149Z,150
2016-05-21T08:15:15.325Z,145
2016-05-21T08:16:15.154Z,145
2016-05-21T08:17:15.330Z,150
2016-05-21T08:18:15.176Z,150
2016-05-21T08:19:15.351Z,150
2016-05-21T08:20:15.338Z,155
2016-05-21T08:21:15.356Z,150
2016-05-21T08:22:15.374Z,150
2016-05-21T08:23:15.362Z,150
2016-05-21T08:24:15.239Z,160
2016-05-21T08:25:15.398Z,155
2016-05-21T08:26:15.245Z,155
2016-05-21T08:27:15.247Z,155
2016-05-21T08:28:15.406Z,155
2016-05-21T08:29:15.425Z,155
2016-05-21T08:30:15.428Z,155
2016-05-21T08:31:15.430Z,155
2016-05-21T08:32:15.433Z,155
2016-05-21T08:33:15.278Z,155
2016-05-21T08:34:15.453Z,155
2016-05-21T08:35:15.441Z,150
2016-05-21T08:36:15.459Z,145
2016-05-21T08:37:15.462Z,140
2016-05-21T08:38:15.480Z,145
2016-05-21T08:39:15.483Z,145
2016-05-21T08:40:15.500Z,145
2016-05-21T08:41:15.785Z,150
2016-05-21T08:42:15.319Z,150
2016-05-21T08:43:15.368Z,150
2016-05-21T08:44:15.511Z,150
2016-05-21T08:45:15.514Z,150
2016-05-21T08:46:15.516Z,150
2016-05-21T08:47:15.535Z,155
2016-05-21T08:48:15.382Z,160
2016-05-21T08:49:15.557Z,145
2016-05-21T08:50:15.418Z,145
2016-05-21T08:51:15.562Z,145
2016-05-21T08:52:15.407Z,145
2016-05-21T08:53:15.582Z,150
2016-05-21T08:54:15.585Z,150
2016-05-21T08:55:15.588Z,150
2016-05-21T08:56:15.606Z,145
2016-05-21T08:57:15.484Z,150
2016-05-21T08:58:15.612Z,150
2016-05-21T08:59:15.302Z,150
2016-05-21T09:00:15.476Z,150
2016-05-21T09:01:15.636Z,150
2016-05-21T09:02:15.966Z,150
2016-05-21T09:03:15.485Z,150
2016-05-21T09:04:15.644Z,150
2016-05-21T09:05:15.661Z,150
2016-05-21T09:06:15.665Z,150
2016-05-21T09:07:15.667Z,150
2016-05-21T09:08:15.670Z,150
2016-05-21T09:09:15.548Z,150
2016-05-21T09:10:15.707Z,150
2016-05-21T09:11:15.709Z,140
2016-05-21T09:12:15.728Z,155
2016-05-21T09:13:15.730Z,150
2016-05-21T09:14:15.717Z,150
2016-05-21T09:15:15.720Z,145
2016-05-21T09:16:15.582Z,135
2016-05-21T09:17:15.741Z,130
2016-05-21T09:18:15.766Z,140
2016-05-21T09:19:15.806Z,140
2016-05-21T09:20:15.657Z,140
2016-05-21T09:21:15.853Z,140
2016-05-21T09:22:15.877Z,140
2016-05-21T09:23:15.901Z,140
2016-05-21T09:24:15.928Z,150
2016-05-21T09:25:15.923Z,155
2016-05-21T09:26:15.480Z,150
2016-05-21T09:27:16.162Z,150
2016-05-21T09:28:15.964Z,150
2016-05-21T09:29:15.969Z,150
2016-05-21T09:30:15.975Z,145
2016-05-21T09:31:15.996Z,140
2016-05-21T09:32:16.017Z,140
2016-05-21T09:33:16.021Z,140
2016-05-21T09:34:16.040Z,140
2016-05-21T09:35:16.029Z,135
2016-05-21T09:36:16.032Z,140
2016-05-21T09:37:16.036Z,140
2016-05-21T09:38:16.055Z,140
2016-05-21T09:39:16.059Z,135
2016-05-21T09:40:15.936Z,135
2016-05-21T09:41:16.095Z,135
2016-05-21T09:42:16.271Z,135
2016-05-21T09:43:16.086Z,135
2016-05-21T09:44:15.948Z,125
2016-05-21T09:45:16.106Z,125
2016-05-21T09:46:15.797Z,120
2016-05-21T09:47:16.112Z,115
2016-05-21T09:48:15.974Z,120
2016-05-21T09:49:16.118Z,120
2016-05-21T09:50:16.135Z,115
2016-05-21T09:51:16.139Z,105
2016-05-21T09:52:16.000Z,105
2016-05-21T09:53:16.159Z,100
2016-05-21T09:54:16.177Z,105
2016-05-21T09:55:16.180Z,105
2016-05-21T09:56:15.886Z,110
2016-05-21T09:57:16.451Z,120
2016-05-21T09:58:16.032Z,130
2016-05-21T09:59:16.207Z,140
2016-05-21T10:00:16.194Z,140
2016-05-21T10:01:16.055Z,135
2016-05-21T10:02:16.215Z,130
2016-05-21T10:03:16.077Z,130
2016-05-21T10:04:16.236Z,135
2016-05-21T10:05:16.238Z,135
2016-05-21T10:06:16.085Z,125
2016-05-21T10:07:16.260Z,130
2016-05-21T10:08:16.106Z,125
2016-05-21T10:09:16.312Z,115
2016-05-21T10:10:16.299Z,120
2016-05-21T10:11:16.692Z,100
2016-05-21T10:12:16.413Z,110
2016-05-21T10:13:16.307Z,130
2016-05-21T10:14:16.309Z,130
2016-05-21T10:15:16.312Z,130
2016-05-21T10:16:16.314Z,130
2016-05-21T10:17:16.334Z,125
2016-05-21T10:18:16.351Z,125
2016-05-21T10:19:16.181Z,120
2016-05-21T10:20:16.184Z,125
2016-05-21T10:21:16.345Z,125
2016-05-21T10:22:16.347Z,125
2016-05-21T10:23:16.365Z,125
2016-05-21T10:24:16.368Z,115
2016-05-21T10:25:16.370Z,125
2016-05-21T10:26:16.341Z,115
2016-05-21T10:27:16.110Z,85
2016-05-21T10:28:16.394Z,90
2016-05-21T10:29:16.241Z,105
2016-05-21T10:30:16.415Z,110
2016-05-21T10:31:16.433Z,125
2016-05-21T10:32:16.280Z,110
2016-05-21T10:33:16.439Z,120
2016-05-21T10:34:16.285Z,100
2016-05-21T10:35:16.288Z,115
2016-05-21T10:36:16.150Z,100
2016-05-21T10:37:16.153Z,115
2016-05-21T10:38:16.155Z,100
2016-05-21T10:39:16.471Z,95
2016-05-21T10:40:16.474Z,100
2016-05-21T10:41:16.179Z,90
2016-05-21T10:42:16.509Z,90
2016-05-21T10:43:16.496Z,90
2016-05-21T10:44:16.484Z,95
2016-05-21T10:45:16.518Z,115
2016-05-21T10:46:16.551Z,100
2016-05-21T10:47:16.382Z,100
2016-05-21T10:48:16.573Z,105
2016-05-21T10:49:16.560Z,95
2016-05-21T10:50:16.390Z,105
2016-05-21T10:51:16.565Z,105
2016-05-21T10:52:16.553Z,110
2016-05-21T10:53:16.571Z,100
2016-05-21T10:54:16.417Z,110
2016-05-21T10:55:16.576Z,115
2016-05-21T10:56:16.439Z,95
2016-05-21T10:57:16.723Z,90
2016-05-21T10:58:16.615Z,90
2016-05-21T10:59:16.665Z,85
2016-05-21T11:00:16.464Z,105
2016-05-21T11:01:16.327Z,95
2016-05-21T11:02:16.688Z,100
2016-05-21T11:03:16.630Z,100
2016-05-21T11:04:16.647Z,100
2016-05-21T11:05:16.493Z,95
2016-05-21T11:06:16.183Z,80
2016-05-21T11:07:16.655Z,75
2016-05-21T11:08:16.658Z,75
2016-05-21T11:09:16.660Z,70
2016-05-21T11:10:16.523Z,70
2016-05-21T11:11:16.697Z,75
2016-05-21T11:12:17.294Z,80
2016-05-21T11:13:16.702Z,85
2016-05-21T11:14:16.424Z,90
2016-05-21T11:15:16.708Z,95
2016-05-21T11:16:16.710Z,90
2016-05-21T11:17:16.729Z,85
2016-05-21T11:18:16.591Z,80
2016-05-21T11:19:16.734Z,80
2016-05-21T11:20:16.612Z,85
2016-05-21T11:21:16.599Z,90
2016-05-21T11:22:16.601Z,100
2016-05-21T11:23:16.761Z,110
2016-05-21T11:24:16.779Z,115
2016-05-21T11:25:16.625Z,115
2016-05-21T11:26:16.644Z,110
2016-05-21T11:27:16.958Z,110
2016-05-21T11:28:16.650Z,105
2016-05-21T11:29:16.824Z,105
2016-05-21T11:30:16.811Z,90
2016-05-21T11:31:16.813Z,90
2016-05-21T11:32:16.535Z,90
2016-05-21T11:33:16.678Z,90
2016-05-21T11:34:16.869Z,90
2016-05-21T11:35:16.840Z,90
2016-05-21T11:36:16.686Z,95
2016-05-21T11:37:16.705Z,90
2016-05-21T11:38:16.708Z,100
2016-05-21T11:39:16.897Z,95
2016-05-21T11:40:16.729Z,90
2016-05-21T11:41:16.746Z,95
2016-05-21T11:42:16.843Z,95
2016-05-21T11:43:16.751Z,95
2016-05-21T11:44:16.755Z,95
2016-05-21T11:45:16.913Z,95
2016-05-21T11:46:16.932Z,95
2016-05-21T11:47:16.935Z,95
2016-05-21T11:48:16.938Z,95
2016-05-21T11:49:16.815Z,95
2016-05-21T11:50:16.787Z,105
2016-05-21T11:51:16.945Z,95
2016-05-21T11:52:16.948Z,105
2016-05-21T11:53:16.967Z,100
2016-05-21T11:54:17.016Z,105
2016-05-21T11:55:16.675Z,110
2016-05-21T11:56:16.834Z,110
2016-05-21T11:57:16.775Z,115
2016-05-21T11:58:17.011Z,110
2016-05-21T11:59:17.030Z,115
2016-05-21T12:00:17.016Z,115
2016-05-21T12:01:16.863Z,115
2016-05-21T12:02:16.880Z,115
2016-05-21T12:03:17.041Z,115
2016-05-21T12:04:17.044Z,115
2016-05-21T12:05:17.046Z,115
2016-05-21T12:06:16.907Z,115
2016-05-21T12:07:16.910Z,115
2016-05-21T12:08:17.069Z,110
2016-05-21T12:09:16.916Z,110
2016-05-21T12:10:16.935Z,110
2016-05-21T12:11:17.093Z,105
2016-05-21T12:12:17.236Z,95
2016-05-21T12:13:17.113Z,90
2016-05-21T12:14:17.116Z,85
2016-05-21T12:15:17.119Z,85
2016-05-21T12:16:17.122Z,95
2016-05-21T12:17:17.140Z,100
2016-05-21T12:18:17.159Z,100
2016-05-21T12:19:17.146Z,95
2016-05-21T12:20:17.148Z,85
2016-05-21T12:21:17.151Z,90
2016-05-21T12:22:16.857Z,85
2016-05-21T12:23:17.015Z,85
2016-05-21T12:24:17.175Z,100
2016-05-21T12:25:17.178Z,95
2016-05-21T12:26:17.195Z,90
2016-05-21T12:27:17.542Z,85
2016-05-21T12:28:17.061Z,85
2016-05-21T12:29:17.219Z,80
2016-05-21T12:30:17.066Z,80
2016-05-21T12:31:17.241Z,85
2016-05-21T12:32:17.103Z,85
2016-05-21T12:33:17.247Z,75
2016-05-21T12:34:17.249Z,75
2016-05-21T12:35:17.095Z,75
2016-05-21T12:36:17.097Z,75
2016-05-21T12:37:17.116Z,75
2016-05-21T12:38:17.290Z,75
2016-05-21T12:39:17.278Z,75
2016-05-21T12:40:17.311Z,75
2016-05-21T12:41:17.298Z,75
2016-05-21T12:42:16.849Z,70
2016-05-21T12:43:17.304Z,75
2016-05-21T12:44:17.322Z,70
2016-05-21T12:45:17.325Z,70
2016-05-21T12:46:17.343Z,70
2016-05-21T12:47:17.346Z,70
2016-05-21T12:48:17.207Z,70
2016-05-21T12:49:17.367Z,70
2016-05-21T12:50:17.370Z,75
2016-05-21T12:51:17.216Z,80
2016-05-21T12:52:17.376Z,80
2016-05-21T12:53:17.378Z,90
2016-05-21T12:54:17.381Z,85
2016-05-21T12:55:17.398Z,80
2016-05-21T12:56:17.401Z,80
2016-05-21T12:57:17.107Z,75
2016-05-21T12:58:17.266Z,75
2016-05-21T12:59:17.425Z,75
2016-05-21T13:00:17.303Z,70
2016-05-21T13:01:17.431Z,65
2016-05-21T13:02:31.386Z,65
2016-05-21T13:03:17.452Z,65
2016-05-21T13:04:17.298Z,65
2016-05-21T13:05:17.316Z,65
2016-05-21T13:06:17.303Z,65
2016-05-21T13:07:17.493Z,65
2016-05-21T13:08:17.324Z,65
2016-05-21T13:09:17.358Z,60
2016-05-21T13:10:17.502Z,60
2016-05-21T13:11:17.505Z,55
2016-05-21T13:12:18.101Z,60
2016-05-21T13:13:17.510Z,60
2016-05-21T13:14:17.527Z,60
2016-05-21T13:15:17.531Z,60
2016-05-21T13:16:17.564Z,60
2016-05-21T13:17:17.379Z,55
2016-05-21T13:18:17.585Z,55
2016-05-21T13:19:17.573Z,55
2016-05-21T13:20:17.560Z,60
2016-05-21T13:21:17.406Z,60
2016-05-21T13:22:17.315Z,55
2016-05-21T13:23:17.427Z,60
2016-05-21T13:24:17.586Z,55
2016-05-21T13:25:17.604Z,55
2016-05-21T13:26:17.592Z,55
2016-05-21T13:27:17.625Z,55
2016-05-21T13:28:17.628Z,55
2016-05-21T13:29:17.615Z,55
2016-05-21T13:30:17.337Z,55
2016-05-21T13:31:17.637Z,55
2016-05-21T13:32:17.655Z,60
2016-05-21T13:33:17.672Z,60
2016-05-21T13:34:17.691Z,60
2016-05-21T13:35:17.663Z,60
2016-05-21T13:36:17.525Z,60
2016-05-21T13:37:17.700Z,60
2016-05-21T13:38:17.686Z,60
2016-05-21T13:39:17.377Z,60
2016-05-21T13:40:17.551Z,60
2016-05-21T13:41:17.711Z,60
2016-05-21T13:42:17.994Z,55
2016-05-21T13:43:17.574Z,55
2016-05-21T13:44:17.562Z,55
2016-05-21T13:45:17.736Z,55
2016-05-21T13:46:17.739Z,55
2016-05-21T13:47:17.757Z,55
2016-05-21T13:48:17.604Z,55
2016-05-21T13:49:17.607Z,55
2016-05-21T13:50:17.406Z,55
2016-05-21T13:51:17.768Z,55
2016-05-21T13:52:17.787Z,55
2016-05-21T13:53:17.476Z,55
2016-05-21T13:54:17.793Z,55
2016-05-21T13:55:17.857Z,55
2016-05-21T13:56:17.922Z,55
2016-05-21T13:57:17.878Z,55
2016-05-21T13:58:17.818Z,55
2016-05-21T13:59:17.821Z,55
2016-05-21T14:00:17.839Z,50
2016-05-21T14:01:17.842Z,55
2016-05-21T14:02:33.345Z,50
2016-05-21T14:03:17.848Z,55
2016-05-21T14:04:17.709Z,55
2016-05-21T14:05:17.586Z,55
2016-05-21T14:06:17.730Z,55
2016-05-21T14:07:17.874Z,55
2016-05-21T14:08:17.891Z,55
2016-05-21T14:09:17.910Z,55
2016-05-21T14:10:17.757Z,55
2016-05-21T14:11:17.900Z,55
2016-05-21T14:12:18.216Z,55